Eielson AFB, Alaska
Current Conditions -  °F | °C
As of 6:58 PM on Tuesday 21 Oct 2014 (Local Time) from PAEI Reporting Station
Clear Clear  
Wind Chill: 26°   Ceiling: Unl
Heat Index: 26°   Visibility: 10mi
Dew Point: 22°   Wind: 0mph
Humidity: 85%   Direction: NA
Pressure: 29.44"   Gusts: NA
Location:  64.68°N, 147.09°W
Report Text: PAEI 220258Z AUTO 00000KT 10SM CLR M04/M06 A2944 RMK AO2 SLP980 T10361058 51003 $
Loading
Personal Weather Stations






























Interactive Weather Map
Tropical Storm Tracking
New forecast layout! Learn more

10-Day Weather Forecast

Advertisements
Track Severe Weather on mobile